Time;durP1;ratioP1;P1;durP2;ratioP2;P2;SDS_P1;SDS_P2;PMS_P1;PMS_P2;Temp;Humidity;BMP_temperature;BMP_pressure;BME280_temperature;BME280_humidity;BME280_pressure;Samples;Min_cycle;Max_cycle;Signal;HPM_P1;HPM_P2
2023/11/23 00:01:48;;;;;;;29.90;12.73;;;;;;;0.75;81.25;101413.78;123851;1109;104341;-76
2023/11/23 00:04:20;;;;;;;28.87;11.43;;;;;;;0.75;80.62;101403.45;123775;1108;104319;-78
2023/11/23 00:06:52;;;;;;;24.30;10.87;;;;;;;0.70;80.62;101409.13;123833;1108;104188;-77
2023/11/23 00:09:25;;;;;;;23.43;10.40;;;;;;;0.66;80.22;101419.05;123744;1109;104198;-76
2023/11/23 00:11:56;;;;;;;25.63;10.80;;;;;;;0.63;80.19;101409.33;123754;1107;101912;-77
2023/11/23 00:14:30;;;;;;;25.83;11.30;;;;;;;0.60;79.87;101411.64;123764;1109;104181;-78
2023/11/23 00:17:02;;;;;;;23.83;10.70;;;;;;;0.57;80.63;101408.78;123810;1107;101900;-77
2023/11/23 00:19:33;;;;;;;24.93;10.77;;;;;;;0.57;80.68;101413.05;123795;1109;104220;-76
2023/11/23 00:22:06;;;;;;;24.07;10.20;;;;;;;0.57;80.35;101413.95;123753;1108;102050;-77
2023/11/23 00:24:38;;;;;;;25.93;11.33;;;;;;;0.58;80.47;101407.09;123783;1108;104277;-77
2023/11/23 00:27:10;;;;;;;25.63;10.50;;;;;;;0.57;80.26;101413.95;123846;1109;104197;-78
2023/11/23 00:29:42;;;;;;;27.40;12.43;;;;;;;0.58;80.86;101405.44;123733;1108;104191;-77
2023/11/23 00:32:13;;;;;;;26.43;11.60;;;;;;;0.56;80.14;101406.95;123822;1109;104218;-76
2023/11/23 00:34:44;;;;;;;25.57;11.30;;;;;;;0.56;80.08;101398.31;123756;1108;104296;-77
2023/11/23 00:37:16;;;;;;;27.60;12.47;;;;;;;0.57;80.21;101406.20;123818;1107;104201;-77
2023/11/23 00:39:47;;;;;;;28.13;12.40;;;;;;;0.53;80.31;101397.28;123829;1109;104416;-76
2023/11/23 00:42:19;;;;;;;28.10;11.33;;;;;;;0.53;80.22;101396.34;123789;1108;103832;-76
2023/11/23 00:44:51;;;;;;;30.67;13.70;;;;;;;0.49;80.47;101387.42;123767;1106;104210;-77
2023/11/23 00:47:23;;;;;;;30.23;13.83;;;;;;;0.50;80.16;101385.77;123801;1109;102065;-77
2023/11/23 00:49:55;;;;;;;29.10;13.57;;;;;;;0.49;80.34;101394.28;123712;1108;104216;-77
2023/11/23 00:52:27;;;;;;;29.63;12.77;;;;;;;0.46;80.17;101391.42;123784;1109;104219;-77
2023/11/23 00:54:59;;;;;;;29.17;12.70;;;;;;;0.43;79.73;101385.98;123669;1108;104267;-78
2023/11/23 00:57:30;;;;;;;28.47;12.87;;;;;;;0.39;80.10;101387.39;123802;1109;104121;-78
2023/11/23 01:00:05;;;;;;;26.73;12.27;;;;;;;0.37;79.77;101377.68;123877;1108;104162;-78
2023/11/23 01:02:38;;;;;;;27.57;11.63;;;;;;;0.33;79.47;101382.56;123911;1108;104217;-77
2023/11/23 01:05:11;;;;;;;27.95;12.00;;;;;;;0.30;79.88;101384.87;123825;1108;104197;-78
2023/11/23 01:07:43;;;;;;;26.70;11.67;;;;;;;0.30;79.87;101382.28;123887;1109;104271;-78
2023/11/23 01:10:15;;;;;;;28.90;12.33;;;;;;;0.31;79.91;101381.53;123883;1109;104290;-77
2023/11/23 01:12:47;;;;;;;30.77;12.57;;;;;;;0.30;79.40;101379.70;123815;1108;104358;-77
2023/11/23 01:15:19;;;;;;;27.33;11.40;;;;;;;0.29;79.09;101379.56;123827;1108;104294;-76
2023/11/23 01:17:50;;;;;;;23.13;9.60;;;;;;;0.23;79.13;101382.48;123819;1109;104399;-78
2023/11/23 01:20:22;;;;;;;23.80;9.33;;;;;;;0.16;78.67;101382.72;123804;1108;101980;-76
2023/11/23 01:22:54;;;;;;;23.87;10.00;;;;;;;0.12;78.97;101381.50;123803;1109;104257;-77
2023/11/23 01:25:25;;;;;;;24.70;9.77;;;;;;;0.11;78.56;101378.78;123853;1108;102006;-78
2023/11/23 01:27:56;;;;;;;25.40;10.10;;;;;;;0.08;78.59;101378.50;123841;1109;104357;-77
2023/11/23 01:30:28;;;;;;;21.93;9.13;;;;;;;0.07;78.94;101356.95;123778;1109;101974;-78
2023/11/23 01:33:00;;;;;;;22.50;9.37;;;;;;;0.06;79.03;101351.66;123759;1109;104194;-77
2023/11/23 01:35:32;;;;;;;22.80;9.70;;;;;;;0.04;78.91;101342.88;123839;1109;104210;-77
2023/11/23 01:38:03;;;;;;;23.33;9.90;;;;;;;0.03;78.82;101338.47;123757;1109;104252;-77
2023/11/23 01:40:35;;;;;;;22.30;9.23;;;;;;;0.03;79.49;101339.37;123738;1108;102512;-76
2023/11/23 01:43:09;;;;;;;25.17;10.80;;;;;;;0.09;79.59;101344.19;123748;1109;104262;-77
2023/11/23 01:45:41;;;;;;;22.47;9.57;;;;;;;0.14;78.93;101345.51;123675;1109;104363;-77
2023/11/23 01:48:14;;;;;;;21.13;9.40;;;;;;;0.13;78.85;101352.36;123823;1109;104274;-77
2023/11/23 01:50:46;;;;;;;23.87;9.77;;;;;;;0.07;78.76;101366.39;123769;1109;104283;-77
2023/11/23 01:53:19;;;;;;;21.50;8.20;;;;;;;0.02;78.63;101362.45;123822;1106;103388;-78
2023/11/23 01:55:51;;;;;;;20.60;8.87;;;;;;;-0.02;77.66;101366.44;123926;1109;104195;-78
2023/11/23 01:58:23;;;;;;;21.45;8.20;;;;;;;-0.05;78.75;101371.31;123839;1109;104204;-78
2023/11/23 02:00:55;;;;;;;21.73;8.90;;;;;;;-0.06;78.52;101369.52;123840;1109;104304;-78
2023/11/23 02:03:27;;;;;;;19.17;7.80;;;;;;;-0.08;78.38;101369.38;123863;1108;104208;-78
2023/11/23 02:05:58;;;;;;;19.97;8.37;;;;;;;-0.09;78.31;101362.39;123817;1108;104290;-77
2023/11/23 02:08:30;;;;;;;18.90;8.00;;;;;;;-0.10;78.10;101362.25;123768;1108;104288;-78
2023/11/23 02:11:01;;;;;;;19.27;8.07;;;;;;;-0.09;78.01;101371.82;123823;1106;104287;-78
2023/11/23 02:13:35;;;;;;;20.37;8.23;;;;;;;-0.14;77.71;101370.47;123814;1109;104333;-77
2023/11/23 02:16:09;;;;;;;18.00;7.57;;;;;;;-0.16;77.91;101392.65;123816;1108;102020;-79
2023/11/23 02:18:40;;;;;;;18.50;8.03;;;;;;;-0.16;78.33;101390.96;123949;1109;104224;-78
2023/11/23 02:21:11;;;;;;;19.83;8.43;;;;;;;-0.15;78.18;101389.31;123893;1109;102106;-77
2023/11/23 02:23:43;;;;;;;20.47;7.77;;;;;;;-0.17;78.12;101386.59;123823;1108;104339;-77
2023/11/23 02:26:15;;;;;;;17.10;7.40;;;;;;;-0.21;77.41;101389.64;123869;1108;102576;-78
2023/11/23 02:28:46;;;;;;;19.80;8.17;;;;;;;-0.28;77.46;101387.24;123857;1108;110927;-77
2023/11/23 02:31:17;;;;;;;16.50;7.47;;;;;;;-0.31;77.16;101386.95;123837;1109;101914;-77
2023/11/23 02:33:50;;;;;;;17.30;7.65;;;;;;;-0.30;77.56;101391.36;123754;1108;104411;-78
2023/11/23 02:36:22;;;;;;;17.80;7.67;;;;;;;-0.34;77.35;101392.76;123840;1108;104268;-79
2023/11/23 02:38:53;;;;;;;15.53;7.50;;;;;;;-0.35;77.57;101396.09;123799;1108;101960;-78
2023/11/23 02:41:25;;;;;;;18.87;7.07;;;;;;;-0.37;77.69;101392.47;123753;1108;102636;-78
2023/11/23 02:43:56;;;;;;;16.83;7.17;;;;;;;-0.38;77.56;101395.80;123861;1109;104213;-78
2023/11/23 02:46:28;;;;;;;17.97;7.33;;;;;;;-0.42;76.81;101380.80;123804;1109;104179;-77
2023/11/23 02:48:59;;;;;;;16.85;7.60;;;;;;;-0.43;77.48;101382.48;123831;1109;102696;-78
2023/11/23 02:51:31;;;;;;;15.47;7.03;;;;;;;-0.44;77.39;101379.75;123815;1108;104290;-78
2023/11/23 02:54:03;;;;;;;15.73;7.10;;;;;;;-0.43;77.05;101382.48;123742;1109;101893;-78
2023/11/23 02:56:36;;;;;;;16.40;7.17;;;;;;;-0.43;77.16;101381.58;123754;1109;104233;-78
2023/11/23 02:59:08;;;;;;;17.30;7.57;;;;;;;-0.40;77.76;101377.61;123839;1109;101955;-77
2023/11/23 03:01:41;;;;;;;17.17;7.20;;;;;;;-0.41;77.00;101374.88;123775;1109;104329;-78
2023/11/23 03:04:13;;;;;;;16.70;7.23;;;;;;;-0.43;77.54;101382.48;123829;1109;104188;-78
2023/11/23 03:06:45;;;;;;;15.47;6.77;;;;;;;-0.44;76.67;101393.55;123799;1108;104194;-78
2023/11/23 03:09:19;;;;;;;19.80;7.20;;;;;;;-0.51;76.99;101392.82;123850;1108;104206;-78
2023/11/23 03:11:51;;;;;;;16.48;7.60;;;;;;;-0.54;77.17;101383.15;123766;1108;104191;-77
2023/11/23 03:14:22;;;;;;;17.77;8.00;;;;;;;-0.53;77.22;101389.20;123707;1108;101903;-77
2023/11/23 03:16:54;;;;;;;18.43;8.17;;;;;;;-0.57;77.13;101378.60;123796;1108;101881;-77
2023/11/23 03:19:26;;;;;;;18.17;7.17;;;;;;;-0.55;76.70;101376.17;123754;1108;104264;-78
2023/11/23 03:21:57;;;;;;;18.03;7.53;;;;;;;-0.61;76.93;101371.36;123762;1109;104348;-77
2023/11/23 03:24:29;;;;;;;17.90;7.43;;;;;;;-0.62;76.51;101366.95;123795;1107;104216;-77
2023/11/23 03:27:02;;;;;;;16.73;7.43;;;;;;;-0.64;77.22;101370.14;123708;1107;104217;-77
2023/11/23 03:29:33;;;;;;;14.77;6.60;;;;;;;-0.65;76.96;101373.50;123714;1109;104659;-77
2023/11/23 03:32:05;;;;;;;16.77;7.23;;;;;;;-0.65;76.84;101383.81;123790;1108;101938;-77
2023/11/23 03:34:37;;;;;;;17.70;7.77;;;;;;;-0.63;76.68;101382.28;123767;1108;104226;-77
2023/11/23 03:37:08;;;;;;;17.07;7.50;;;;;;;-0.68;76.62;101378.38;123761;1109;104421;-78
2023/11/23 03:39:40;;;;;;;15.93;6.27;;;;;;;-0.70;76.82;101378.23;123726;1109;102158;-79
2023/11/23 03:42:11;;;;;;;16.30;7.20;;;;;;;-0.74;76.01;101376.11;123823;1108;104191;-77
2023/11/23 03:44:43;;;;;;;16.20;6.75;;;;;;;-0.78;76.71;101366.27;123777;1109;104253;-78
2023/11/23 03:47:14;;;;;;;17.45;7.20;;;;;;;-0.78;77.07;101362.03;123725;1108;104303;-77
2023/11/23 03:49:46;;;;;;;15.37;7.07;;;;;;;-0.71;76.38;101354.88;123718;1108;102051;-77
2023/11/23 03:52:17;;;;;;;17.37;7.43;;;;;;;-0.70;76.82;101346.37;123722;1108;104217;-77
2023/11/23 03:54:49;;;;;;;16.37;6.83;;;;;;;-0.75;76.00;101341.70;123732;1108;104227;-77
2023/11/23 03:57:23;;;;;;;16.23;7.35;;;;;;;-0.76;76.15;101334.73;123683;1108;104192;-77
2023/11/23 03:59:54;;;;;;;18.17;7.40;;;;;;;-0.78;76.10;101325.95;123710;1109;104214;-77
2023/11/23 04:02:27;;;;;;;17.73;7.87;;;;;;;-0.80;76.47;101322.30;123821;1108;103188;-77
2023/11/23 04:04:58;;;;;;;15.80;6.55;;;;;;;-0.82;76.49;101323.84;123701;1107;104252;-77
2023/11/23 04:07:32;;;;;;;16.47;7.13;;;;;;;-0.81;76.83;101320.52;123737;1108;104280;-77
2023/11/23 04:10:03;;;;;;;17.10;7.20;;;;;;;-0.83;76.38;101322.02;123741;1109;103122;-77
2023/11/23 04:12:35;;;;;;;16.73;7.17;;;;;;;-0.82;76.41;101317.79;123725;1109;104204;-77
2023/11/23 04:15:09;;;;;;;17.17;7.50;;;;;;;-0.83;76.33;101321.13;123793;1108;102310;-77
2023/11/23 04:17:39;;;;;;;;;;;;;;;-0.90;76.45;101327.38;123751;1108;101840;-77
2023/11/23 04:20:12;;;;;;;17.20;6.97;;;;;;;-0.86;75.94;101320.83;123735;1108;104336;-77
2023/11/23 04:22:43;;;;;;;18.13;7.70;;;;;;;-0.78;76.18;101319.88;123747;1108;104189;-77
2023/11/23 04:25:15;;;;;;;20.87;8.50;;;;;;;-0.77;76.47;101309.70;123800;1108;104229;-77
2023/11/23 04:27:47;;;;;;;18.57;7.80;;;;;;;-0.73;76.99;101310.92;123802;1109;104473;-77
2023/11/23 04:30:19;;;;;;;19.85;8.10;;;;;;;-0.68;76.64;101311.36;123759;1109;104206;-77
2023/11/23 04:32:50;;;;;;;18.60;7.53;;;;;;;-0.70;76.51;101318.94;123728;1108;102065;-77
2023/11/23 04:35:22;;;;;;;17.23;7.90;;;;;;;-0.70;76.07;101318.94;123734;1107;104297;-77
2023/11/23 04:37:53;;;;;;;20.63;8.10;;;;;;;-0.62;76.35;101317.09;123762;1109;101854;-77
2023/11/23 04:40:25;;;;;;;17.70;8.37;;;;;;;-0.56;76.43;101317.66;123709;1109;104350;-77
2023/11/23 04:42:56;;;;;;;18.53;8.30;;;;;;;-0.51;76.70;101316.41;123707;1109;104188;-77
2023/11/23 04:45:28;;;;;;;21.17;8.83;;;;;;;-0.51;76.63;101325.78;123715;1109;104217;-77
2023/11/23 04:47:59;;;;;;;21.67;8.73;;;;;;;-0.57;76.00;101326.14;123764;1108;104188;-76
2023/11/23 04:50:30;;;;;;;20.20;7.87;;;;;;;-0.57;76.58;101326.14;123796;1109;104185;-77
2023/11/23 04:53:02;;;;;;;20.30;8.37;;;;;;;-0.55;76.22;101335.84;123726;1109;104191;-77
2023/11/23 04:55:35;;;;;;;17.97;7.77;;;;;;;-0.58;76.54;101338.14;123728;1109;104293;-76
2023/11/23 04:58:07;;;;;;;20.50;8.20;;;;;;;-0.60;76.74;101341.33;123711;1106;104293;-77
2023/11/23 05:00:38;;;;;;;18.50;8.50;;;;;;;-0.60;76.81;101338.75;123803;1109;104233;-78
2023/11/23 05:03:09;;;;;;;19.03;8.20;;;;;;;-0.59;76.20;101335.41;124191;1109;101856;-79
2023/11/23 05:05:41;;;;;;;19.67;8.13;;;;;;;-0.56;76.28;101327.97;124224;1109;102493;-77
2023/11/23 05:08:12;;;;;;;19.70;8.03;;;;;;;-0.56;76.67;101323.70;123872;1109;104264;-78
2023/11/23 05:10:44;;;;;;;20.37;8.47;;;;;;;-0.57;76.78;101315.83;124100;1109;104105;-78
2023/11/23 05:13:15;;;;;;;21.43;9.57;;;;;;;-0.55;76.54;101309.13;124062;1108;104317;-79
2023/11/23 05:15:47;;;;;;;21.53;8.57;;;;;;;-0.51;76.53;101312.89;124110;1108;104185;-78
2023/11/23 05:18:19;;;;;;;19.27;8.50;;;;;;;-0.53;76.58;101323.09;124107;1109;104380;-79
2023/11/23 05:20:50;;;;;;;15.03;7.00;;;;;;;-0.56;76.35;101312.50;124017;1106;102118;-79
2023/11/23 05:23:22;;;;;;;16.20;7.20;;;;;;;-0.60;76.39;101308.70;124310;1109;104189;-78
2023/11/23 05:25:56;;;;;;;17.17;7.87;;;;;;;-0.64;75.76;101305.70;124400;1109;104105;-81
2023/11/23 05:28:27;;;;;;;15.78;7.20;;;;;;;-0.66;75.45;101307.23;124385;1108;104233;-80
2023/11/23 05:30:59;;;;;;;16.77;7.20;;;;;;;-0.67;75.79;101287.37;124324;1109;102173;-80
2023/11/23 05:33:30;;;;;;;16.37;7.43;;;;;;;-0.67;76.04;101282.22;124211;1108;101849;-78
2023/11/23 05:36:02;;;;;;;17.83;7.20;;;;;;;-0.67;76.59;101277.06;124274;1109;104197;-80
2023/11/23 05:38:33;;;;;;;17.07;7.43;;;;;;;-0.65;76.44;101275.55;124215;1109;104380;-77
2023/11/23 05:41:06;;;;;;;22.37;9.07;;;;;;;-0.60;75.96;101276.88;124330;1109;102431;-78
2023/11/23 05:43:37;;;;;;;19.30;8.37;;;;;;;-0.52;76.40;101272.43;124365;1106;104223;-80
2023/11/23 05:46:09;;;;;;;17.73;7.67;;;;;;;-0.47;76.44;101274.64;124413;1109;104246;-78
2023/11/23 05:48:41;;;;;;;16.53;7.20;;;;;;;-0.41;76.21;101277.78;124255;1108;104089;-77
2023/11/23 05:51:12;;;;;;;17.43;7.47;;;;;;;-0.39;76.67;101280.51;124237;1109;104185;-79
2023/11/23 05:53:44;;;;;;;19.10;7.77;;;;;;;-0.36;76.46;101270.47;124237;1109;104207;-78
2023/11/23 05:56:16;;;;;;;17.63;7.10;;;;;;;-0.29;76.09;101267.70;124276;1109;104530;-78
2023/11/23 05:58:47;;;;;;;19.13;8.03;;;;;;;-0.21;76.63;101276.14;124234;1109;104302;-77
2023/11/23 06:01:19;;;;;;;16.87;7.40;;;;;;;-0.13;76.54;101280.31;124388;1108;104201;-78
2023/11/23 06:03:53;;;;;;;15.20;6.93;;;;;;;-0.07;76.57;101264.49;124220;1109;103155;-78
2023/11/23 06:06:25;;;;;;;16.87;7.57;;;;;;;0.01;76.57;101257.44;124050;1108;104229;-78
2023/11/23 06:08:58;;;;;;;20.87;8.17;;;;;;;0.08;76.31;101255.55;124070;1109;102917;-76
2023/11/23 06:11:30;;;;;;;19.67;8.33;;;;;;;0.17;76.35;101252.87;123958;1108;102754;-78
2023/11/23 06:14:01;;;;;;;19.67;8.10;;;;;;;0.25;76.97;101245.80;124107;1109;103315;-76
2023/11/23 06:16:33;;;;;;;19.20;7.83;;;;;;;0.31;76.74;101247.28;123927;1109;104264;-76
2023/11/23 06:19:05;;;;;;;17.30;7.63;;;;;;;0.31;76.54;101242.11;123904;1108;104220;-76
2023/11/23 06:21:36;;;;;;;19.30;8.50;;;;;;;0.34;76.33;101242.39;123928;1109;103186;-75
2023/11/23 06:24:09;;;;;;;19.07;8.83;;;;;;;0.40;76.27;101229.09;123917;1109;104096;-76
2023/11/23 06:26:41;;;;;;;19.77;8.43;;;;;;;0.44;76.36;101220.85;123910;1109;102453;-76
2023/11/23 06:29:13;;;;;;;16.47;7.70;;;;;;;0.48;76.28;101230.69;124072;1108;103279;-76
2023/11/23 06:31:50;;;;;;;18.60;8.10;;;;;;;0.54;76.51;101219.97;124159;1109;104283;-78
2023/11/23 06:34:22;;;;;;;17.87;7.60;;;;;;;0.62;76.37;101208.62;124282;1109;101957;-78
2023/11/23 06:36:57;;;;;;;16.77;7.33;;;;;;;0.70;76.34;101210.21;124018;1109;104121;-79
2023/11/23 06:39:38;;;;;;;19.03;8.43;;;;;;;0.76;76.34;101201.17;124157;1108;104205;-79
2023/11/23 06:42:12;;;;;;;17.17;7.70;;;;;;;0.78;76.49;101190.20;124123;1109;104297;-77
2023/11/23 06:44:46;;;;;;;20.57;7.60;;;;;;;0.81;76.13;101192.13;124387;1108;104217;-78
2023/11/23 06:47:19;;;;;;;16.77;7.87;;;;;;;0.79;76.45;101194.58;124548;1108;102829;-76
2023/11/23 06:49:50;;;;;;;17.70;8.43;;;;;;;0.83;75.99;101182.84;124407;1109;104415;-78
2023/11/23 06:52:35;;;;;;;19.13;8.13;;;;;;;0.87;76.94;101188.41;124582;1109;102972;-77
2023/11/23 06:55:15;;;;;;;19.00;8.50;;;;;;;0.93;76.64;101187.11;124232;1109;104249;-75
2023/11/23 06:57:47;;;;;;;18.53;8.40;;;;;;;0.97;76.00;101195.26;124316;1109;104287;-76
2023/11/23 07:00:23;;;;;;;18.33;8.37;;;;;;;1.00;76.67;101184.28;124430;1108;102597;-77
2023/11/23 07:02:57;;;;;;;18.03;8.33;;;;;;;1.05;76.62;101183.88;124376;1109;104287;-76
2023/11/23 07:05:29;;;;;;;;;;;;;;;1.10;76.49;101180.80;124417;1109;102998;-75
2023/11/23 07:08:03;;;;;;;20.10;8.45;;;;;;;1.11;76.22;101170.58;124413;1108;104817;-76
2023/11/23 07:10:41;;;;;;;17.93;8.47;;;;;;;1.11;75.91;101164.48;124397;1108;103174;-77
2023/11/23 07:13:26;;;;;;;21.20;8.60;;;;;;;1.12;76.34;101167.20;124303;1109;103146;-75
2023/11/23 07:16:22;;;;;;;19.47;8.70;;;;;;;1.16;75.94;101155.45;124479;1109;104224;-79
2023/11/23 07:19:16;;;;;;;21.37;8.70;;;;;;;1.19;76.15;101150.55;125453;1108;102593;-78
2023/11/23 07:22:01;;;;;;;18.73;8.17;;;;;;;1.23;76.14;101150.00;125513;1107;101792;-79
2023/11/23 07:24:35;;;;;;;19.60;9.10;;;;;;;1.31;76.12;101156.73;125493;1108;101703;-77
2023/11/23 07:27:09;;;;;;;17.13;8.07;;;;;;;1.32;76.42;101143.01;125525;1109;102656;-78
2023/11/23 07:29:40;;;;;;;21.00;8.70;;;;;;;1.38;76.30;101142.63;124770;1108;103183;-77
2023/11/23 07:32:14;;;;;;;19.47;8.70;;;;;;;1.43;76.46;101128.38;124393;1109;104173;-80
2023/11/23 07:34:45;;;;;;;20.20;9.10;;;;;;;1.44;76.37;101125.92;124232;1108;104197;-81
2023/11/23 07:37:17;;;;;;;19.87;9.13;;;;;;;1.49;75.81;101117.64;124292;1108;104249;-81
2023/11/23 07:39:51;;;;;;;18.63;8.67;;;;;;;1.54;75.79;101108.56;124391;1107;102674;-78
2023/11/23 07:42:23;;;;;;;22.85;9.18;;;;;;;1.54;75.72;101099.15;123998;1109;101963;-78
2023/11/23 07:44:57;;;;;;;19.27;9.10;;;;;;;1.52;75.94;101090.34;124276;1108;104310;-78
2023/11/23 07:47:49;;;;;;;20.80;8.65;;;;;;;1.56;75.91;101099.27;125069;1109;102208;-77
2023/11/23 07:50:26;;;;;;;21.23;8.37;;;;;;;1.58;75.66;101092.53;124994;1108;102594;-80
2023/11/23 07:53:16;;;;;;;20.63;8.87;;;;;;;1.65;76.36;101093.92;124476;1109;104172;-78
2023/11/23 07:55:56;;;;;;;20.93;9.50;;;;;;;1.71;75.94;101091.83;125060;1108;102875;-74
2023/11/23 07:58:29;;;;;;;21.90;9.40;;;;;;;1.68;75.68;101079.53;124171;1109;104239;-78
2023/11/23 08:01:01;;;;;;;20.92;9.08;;;;;;;1.64;75.90;101066.23;124204;1108;102136;-77
2023/11/23 08:03:34;;;;;;;21.27;9.50;;;;;;;1.65;75.71;101065.46;124017;1109;102733;-75
2023/11/23 08:06:09;;;;;;;20.27;9.23;;;;;;;1.68;75.63;101074.36;124238;1109;104198;-76
2023/11/23 08:08:43;;;;;;;20.67;9.77;;;;;;;1.73;75.60;101073.07;124218;1108;104182;-76
2023/11/23 08:11:16;;;;;;;22.47;10.07;;;;;;;1.82;75.38;101061.64;124323;1108;104272;-78
2023/11/23 08:14:01;;;;;;;22.20;9.43;;;;;;;1.88;75.92;101055.25;124318;1109;103539;-77
2023/11/23 08:16:34;;;;;;;21.37;9.97;;;;;;;1.92;75.61;101061.59;124236;1108;102715;-76
2023/11/23 08:19:06;;;;;;;23.53;10.33;;;;;;;1.93;75.67;101058.20;124134;1108;102493;-75
2023/11/23 08:21:38;;;;;;;19.57;8.93;;;;;;;1.99;75.87;101045.75;124175;1108;103016;-76
2023/11/23 08:24:12;;;;;;;22.67;10.30;;;;;;;1.95;75.11;101043.72;123989;1109;104264;-75
2023/11/23 08:26:44;;;;;;;21.90;10.80;;;;;;;1.85;74.61;101029.13;124078;1108;102570;-75
2023/11/23 08:29:18;;;;;;;24.63;10.73;;;;;;;1.82;75.11;101026.30;123910;1108;104178;-75
2023/11/23 08:31:53;;;;;;;21.42;10.03;;;;;;;1.86;75.44;101032.64;124037;1108;102427;-75
2023/11/23 08:34:30;;;;;;;22.40;10.40;;;;;;;1.94;75.59;101035.03;124184;1109;104328;-75
2023/11/23 08:37:11;;;;;;;24.15;10.90;;;;;;;1.97;75.07;101027.51;124147;1108;104123;-77
2023/11/23 08:39:44;;;;;;;20.73;9.93;;;;;;;1.93;75.09;101024.56;124057;1108;104236;-74
2023/11/23 08:42:35;;;;;;;22.17;9.87;;;;;;;1.99;75.52;101027.63;124041;1109;102173;-76
2023/11/23 08:45:11;;;;;;;26.63;10.97;;;;;;;2.01;74.91;101030.34;124037;1109;102169;-75
2023/11/23 08:47:44;;;;;;;22.13;10.00;;;;;;;1.96;74.49;101014.45;124036;1108;104210;-76
2023/11/23 08:50:15;;;;;;;24.30;10.53;;;;;;;1.92;74.94;101015.91;124566;1109;102545;-75
2023/11/23 08:52:47;;;;;;;22.57;10.33;;;;;;;1.97;75.09;101005.91;124497;1109;103112;-75
2023/11/23 08:55:24;;;;;;;21.70;9.20;;;;;;;2.05;74.23;100980.63;124161;1108;104703;-74
2023/11/23 08:57:55;;;;;;;25.63;10.53;;;;;;;2.11;75.10;100984.58;123966;1109;104371;-77
2023/11/23 09:00:34;;;;;;;22.13;9.60;;;;;;;2.20;75.29;100988.65;124003;1108;104307;-77
2023/11/23 09:03:09;;;;;;;20.67;9.13;;;;;;;2.21;74.89;100962.87;124158;1109;102195;-76
2023/11/23 09:05:42;;;;;;;21.85;10.00;;;;;;;2.20;74.31;100954.98;123982;1108;102316;-77
2023/11/23 09:08:18;;;;;;;20.67;9.20;;;;;;;2.25;74.61;100948.50;124242;1109;104235;-76
2023/11/23 09:10:51;;;;;;;22.87;8.93;;;;;;;2.37;75.27;100938.14;124290;1108;104237;-79
2023/11/23 09:13:54;;;;;;;;;;;;;;;;;;;;;
2023/11/23 09:17:16;;;;;;;21.27;8.53;;;;;;;2.53;74.76;100911.73;124953;1109;102059;-76
2023/11/23 09:20:31;;;;;;;19.83;8.33;;;;;;;2.58;73.63;100903.48;125049;1109;102116;-76
2023/11/23 09:23:50;;;;;;;;;;;;;;;;;;;;;
2023/11/23 09:27:10;;;;;;;22.33;9.47;;;;;;;2.68;74.33;100876.55;125049;1109;102404;-79
2023/11/23 09:30:12;;;;;;;19.50;8.70;;;;;;;2.76;74.79;100867.67;124409;1112;102129;-77
2023/11/23 09:33:23;;;;;;;22.07;9.00;;;;;;;2.84;73.74;100866.53;125114;1109;104167;-75
2023/11/23 09:36:48;;;;;;;20.57;8.63;;;;;;;2.93;73.80;100855.02;124492;1109;103336;-80
2023/11/23 09:39:46;;;;;;;21.67;8.77;;;;;;;2.97;73.89;100859.64;125135;1109;102486;-77
2023/11/23 09:42:41;;;;;;;21.83;9.67;;;;;;;3.03;74.20;100849.70;125218;1108;102476;-80
2023/11/23 09:45:30;;;;;;;20.63;9.20;;;;;;;3.15;74.66;100849.70;125081;1108;101756;-80
2023/11/23 09:48:23;;;;;;;22.07;9.73;;;;;;;3.21;74.53;100837.13;125084;1107;102770;-75
2023/11/23 09:54:44;;;;;;;21.27;9.67;;;;;;;3.20;74.53;100832.75;125158;1109;104297;-75
2023/11/23 09:57:20;;;;;;;22.10;9.80;;;;;;;3.22;74.47;100825.97;124876;1109;104529;-80
2023/11/23 09:59:56;;;;;;;22.60;9.80;;;;;;;3.26;74.58;100814.11;124350;1108;104130;-77
2023/11/23 10:02:49;;;;;;;23.00;10.80;;;;;;;3.33;74.41;100816.35;124410;1109;103769;-76
2023/11/23 10:05:24;;;;;;;22.57;10.47;;;;;;;3.44;73.85;100810.20;125609;1107;102037;-79
2023/11/23 10:07:57;;;;;;;22.43;9.50;;;;;;;3.55;74.10;100785.92;125710;1108;101823;-78
2023/11/23 10:10:31;;;;;;;21.47;9.70;;;;;;;3.64;75.00;100783.03;125672;1108;101970;-77
2023/11/23 10:13:03;;;;;;;20.40;8.43;;;;;;;3.72;74.03;100775.77;124407;1109;102397;-76
2023/11/23 10:15:35;;;;;;;20.87;9.67;;;;;;;3.68;74.21;100774.67;124322;1109;102510;-77
2023/11/23 10:18:08;;;;;;;23.43;9.53;;;;;;;3.69;74.17;100781.63;124207;1109;102753;-77
2023/11/23 10:20:46;;;;;;;21.33;9.00;;;;;;;3.69;74.09;100785.94;124078;1108;103222;-76
2023/11/23 10:23:21;;;;;;;21.70;9.73;;;;;;;3.68;74.27;100777.27;124289;1109;104363;-78
2023/11/23 10:25:55;;;;;;;26.20;10.47;;;;;;;3.59;73.69;100766.26;124302;1108;104230;-79
2023/11/23 10:28:34;;;;;;;21.47;9.23;;;;;;;3.50;73.95;100743.17;124362;1107;103018;-75
2023/11/23 10:31:06;;;;;;;22.63;9.70;;;;;;;3.49;73.65;100741.39;124098;1109;104306;-76
2023/11/23 10:33:44;;;;;;;20.27;10.10;;;;;;;3.47;73.66;100721.31;124192;1109;102780;-76
2023/11/23 10:36:17;;;;;;;22.17;10.07;;;;;;;3.44;73.58;100706.43;125011;1109;102810;-75
2023/11/23 10:38:50;;;;;;;21.15;9.90;;;;;;;3.43;73.76;100702.06;123992;1109;107030;-75
2023/11/23 10:41:25;;;;;;;21.67;10.53;;;;;;;3.40;73.37;100694.07;124451;1109;102162;-76
2023/11/23 10:44:00;;;;;;;22.67;10.47;;;;;;;3.42;73.47;100680.38;124338;1108;102392;-77
2023/11/23 10:46:32;;;;;;;24.07;10.53;;;;;;;3.41;73.81;100664.72;124363;1109;104650;-77
2023/11/23 10:49:06;;;;;;;25.10;11.03;;;;;;;3.46;73.02;100672.81;124198;1109;118915;-76
2023/11/23 10:51:40;;;;;;;28.57;12.33;;;;;;;3.47;73.96;100670.31;124311;1109;103414;-76
2023/11/23 10:54:13;;;;;;;26.90;11.57;;;;;;;3.51;73.48;100659.36;124237;1108;102556;-76
2023/11/23 10:56:50;;;;;;;25.33;11.07;;;;;;;3.59;73.88;100650.37;124419;1107;102530;-76
2023/11/23 10:59:26;;;;;;;25.90;11.40;;;;;;;3.67;73.28;100658.66;124387;1108;102555;-77
2023/11/23 11:01:59;;;;;;;25.57;11.60;;;;;;;3.68;73.70;100639.71;124318;1107;104327;-76
2023/11/23 11:04:41;;;;;;;28.50;11.37;;;;;;;3.69;73.58;100638.00;124368;1108;103075;-79
2023/11/23 11:07:26;;;;;;;27.70;13.17;;;;;;;3.74;73.65;100639.19;125067;1109;102883;-76
2023/11/23 11:10:06;;;;;;;32.90;13.77;;;;;;;3.74;73.54;100634.00;124745;1108;102007;-78
2023/11/23 11:12:46;;;;;;;30.00;13.13;;;;;;;3.70;73.88;100632.91;124957;1109;102387;-80
2023/11/23 11:15:21;;;;;;;28.03;12.60;;;;;;;3.66;73.42;100627.42;124850;1109;105111;-82
2023/11/23 11:18:06;;;;;;;31.15;14.15;;;;;;;3.66;73.64;100630.94;124683;1108;102215;-80
2023/11/23 11:20:44;;;;;;;29.35;13.05;;;;;;;3.62;73.70;100620.26;124963;1109;102478;-78
2023/11/23 11:23:19;;;;;;;30.67;13.67;;;;;;;3.59;73.86;100614.05;124966;1109;102440;-79
2023/11/23 11:25:57;;;;;;;28.23;13.00;;;;;;;3.63;73.65;100609.05;124936;1109;102732;-78
2023/11/23 11:28:59;;;;;;;32.00;13.90;;;;;;;3.65;74.06;100603.18;124806;1108;102843;-80
2023/11/23 11:32:00;;;;;;;27.23;11.97;;;;;;;3.65;74.19;100597.98;124971;1109;102225;-79
2023/11/23 11:34:37;;;;;;;32.75;13.65;;;;;;;3.60;73.64;100589.91;125122;1109;104083;-79
2023/11/23 11:37:13;;;;;;;30.20;13.80;;;;;;;3.55;74.02;100593.91;124436;1108;104182;-79
2023/11/23 11:39:49;;;;;;;31.80;13.70;;;;;;;3.51;74.40;100578.04;124342;1108;104326;-77
2023/11/23 11:42:24;;;;;;;32.80;14.87;;;;;;;3.51;73.76;100578.92;125612;1108;101990;-77
2023/11/23 11:45:10;;;;;;;29.33;13.53;;;;;;;3.46;74.37;100569.03;125676;1106;102702;-77
2023/11/23 11:47:42;;;;;;;31.93;13.80;;;;;;;3.41;73.26;100563.55;125595;1108;102574;-79